AirNav   Pilot Hours Calculator
 
 1271 users online  

I62 Brookville Air-Park Airport
Brookville, Ohio, USA

GOING TO BROOKVILLE?


FAA INFORMATION EFFECTIVE 10 OCTOBER 2019

Location

FAA Identifier: I62
Lat/Long: 39-51-35.4200N 084-26-06.6900W
39-51.590333N 084-26.111500W
39.8598389,-84.4351917
(estimated)
Elevation: 1037 ft. / 316.1 m (surveyed)
Variation: 04W (1985)
From city: 2 miles NW of BROOKVILLE, OH
Time zone: UTC -4 (UTC -5 during Standard Time)
Zip code: 45309

Airport Operations

Airport use: Open to the public
Activation date: 04/1949
Control tower: no
ARTCC: INDIANAPOLIS CENTER
FSS: DAYTON FLIGHT SERVICE STATION
NOTAMs facility: DAY (NOTAM-D service available)
Attendance: UNATNDD
Wind indicator: yes
Segmented circle: no
Lights: SS-SR
Landing fee: yes, CTC ARPT MGR FOR DTLS.

Airport Communications

CTAF/UNICOM: 122.8
COLUMBUS APPROACH: 118.425
COLUMBUS DEPARTURE: 118.425
WX ASOS at DAY (10 nm E): PHONE 937-415-6819
WX ASOS at MGY (19 nm SE): 118.375 (937-885-2171)
WX AWOS-3 at MWO (20 nm S): 120.025 (513-422-3505)
WX AWOS-3 at RID (20 nm W): 121.225 (765-983-1903)

Nearby radio navigation aids

VOR radial/distance  VOR name  Freq  Var
DQNr192/9.6DAYTON VOR/DME114.5001W
SGHr277/27.2SPRINGFIELD VOR/DME113.2004W
RODr220/31.4ROSEWOOD VORTAC117.5005W
MXQr315/39.0MIDWEST VOR/DME112.9004W

 
NDB name  Hdg/Dist  Freq  Var  ID
BRUNY286/4.731506WAT .- -
HOOK FIELD006/21.723904WHKF .... -.- ..-.
CLARK COUNTY272/30.234104WCCJ -.-. -.-. .---

Airport Services

Parking: buoy

Runway Information

Runway 9/27

Dimensions: 2445 x 30 ft. / 745 x 9 m
Surface: asphalt, in fair condition
PAVEMENT CONDITION - CHIP SEAL.
Runway edge lights: low intensity
RUNWAY 9  RUNWAY 27
Latitude: 39-51.585833N39-51.594833N
Longitude: 084-26.372667W084-25.850333W
Elevation: 1037.0 ft.1037.0 ft.
Traffic pattern: leftleft
Markings: nonenone
Obstructions: 15 ft. road, 289 ft. from runway, 134 ft. left of centerline, 5:1 slope to clear
44 FT TREES 0 FT FM RY END 60 FT R. CROPS IN GROWING SEASON.
43 ft. trees, 201 ft. from runway, 57 ft. left of centerline
23 - 43 FT BRUSH & TREES 158-200 FT FM 71 FT R-125 FT L; +10 FT PVT RD 140 FT FM 125 FT R-125 FT L.

Airport Ownership and Management from official FAA records

Ownership: Privately-owned
Owner: MICHAEL SCHANEY
10491 PLEASANT PLAIN RD
BROOKVILLE, OH 45309
Phone (937) 409-1963
Manager: MICHAEL SCHANEY
10491 PLEASANT PLAIN RD
BROOKVILLE, OH 45309
Phone (937) 409-1963
ADNL CTC: TRAVILAIR@AOL.COM

Airport Operational Statistics

Aircraft based on the field: 2
Single engine airplanes: 2
    
Aircraft operations: 150/year *
100% local general aviation
* for 12-month period ending 03 September 2016

Additional Remarks

DEER, BIRDS & OTR WILDLIFE ON & INVOF ARPT.
COLUMBUS APCH CTL TEL# 614-338-8537.
NO STUDENT OPS.
NO ACFT PRKG ON OR IN RWY AND RWY SAFETY AREA.

Instrument Procedures

There are no published instrument procedures at I62.

Some nearby airports with instrument procedures:

3I7 - Dayton-Phillipsburg Airport (4 nm NE)
KDAY - James M Cox Dayton International Airport (10 nm E)
KFFO - Wright-Patterson Air Force Base (18 nm E)
KMGY - Dayton-Wright Brothers Airport (19 nm SE)
I17 - Piqua Airport - Hartzell Field (19 nm N)
KMWO - Middletown Regional Airport/Hook Field (20 nm S)
KRID - Richmond Municipal Airport (20 nm W)
 
Loc | Ops | Rwys | IFR | FBO | Links
Com | Nav | Svcs | Stats | Notes
Area around I62 (Brookville Air-Park Airport)
 
Road maps at: MapQuest Bing Google
 
Aerial photo
WARNING: Photo may not be current or correct
Aerial photo of I62 (Brookville Air-Park Airport)
Photo by Gary Chambers
Photo taken 03-Oct-2004
from the south looking north.cNotice how the taxiway connecting the runway with the terminal area crosses a road. Look both ways!

Do you have a better or more recent aerial photo of Brookville Air-Park Airport that you would like to share? If so, please send us your photo.

 
Sectional chart

 
Airport distance calculator
Flying to Brookville Air-Park Airport? Find the distance to fly.

From to I62

Sunrise and sunset
Times for 14-Oct-2019
 Local
(UTC-4)
 Zulu
(UTC)
Morning civil twilight07:2111:21
Sunrise07:4811:48
Sunset19:0023:00
Evening civil twilight19:2723:27

Current date and time
Zulu (UTC)  14-Oct-2019 14:48:56
Local (UTC-4)  14-Oct-2019 10:48:56
 
METAR
KDAY 
10nm E 
141356Z 28005KT 10SM CLR 11/02 A3010 RMK AO2 SLP190 T01110017
KMGY 
18nm SE 
141353Z AUTO 19003KT 10SM CLR 11/03 A3009 RMK AO2 SLP189 T01060033
KFFO 
19nm E 
141356Z AUTO 20005KT 10SM CLR 10/04 A3009 RMK AO2 SLP194 T00980042 $
KRID 
20nm W 
141435Z AUTO 29007KT 10SM CLR 10/02 A3011 RMK AO2
KMWO 
20nm S 
141435Z AUTO 00000KT 10SM CLR 12/04 A3012 RMK AO2 T01170036
TAF
KDAY 
10nm E 
141126Z 1412/1512 26006KT P6SM SKC FM141500 28011G17KT P6SM SKC FM150000 VRB03KT P6SM FEW250
KFFO 
19nm E 
141100Z 1411/1517 VRB06KT 9999 FEW030 QNH2998INS BECMG 1416/1417 27012G18KT 9999 SKC QNH3003INS BECMG 1423/1424 VRB06KT 9999 SKC QNH2999INS TX15/1420Z TN02/1411Z
NOTAMs
Click for the latest NOTAMs
NOTAMs are issued by the DoD/FAA and will open in a separate window not controlled by AirNav.

 

 
 

Would you like to see your business listed on this page?

 If your business provides an interesting product or service to pilots, flight crews, aircraft, or users of the Brookville Air-Park Airport, you should consider listing it here.  To start the listing process, click on the button below
 
Add a business
 

Other Pages about Brookville Air-Park Airport

Update a link
 
Copyright © AirNav, LLC. All rights reserved. Privacy Policy  Contact